KFHR

Friday Harbor Airport

Friday Harbor, Washington, USA
METAR KFHR 180153Z AUTO 23006KT 10SM CLR 17/11 A3020 RMK AO2 SLP226 T01720106 TSNO
Observed Flight Rules
Aug-18 @ 01:53 UTC (36 minutes ago) Visual Flight Rules
Wind Visibility Clouds
230° at 6 knots 10 miles
  • Clear skies
Temperatures Readings
Current 17°C / 63°F
Dewpoint 11°C / 52°F
Humidity 68%
Altimeter 30.2" Hg
Pressure 1022.6 hPa
Elevation 32
METAR KFHR 180153Z AUTO 23006KT 10SM CLR 17/11 A3020 RMK AO2 SLP226 T01720106 TSNO
Observed Flight Rules
Aug-18 @ 01:53 UTC
(36 minutes ago)
VFR
Wind Visibility
230° at 6 knots 10 miles
Clouds
  • Clear skies
Temperature Dewpoint
17°C / 63°F 11°C / 52°F
Humidity Altimeter Pressure
68% 30.2" Hg 1022.6 hPa